PROFILE

 METAR AND TAF INFORMATION
ADDS - METARS form results

(0023 UTC 13 November 2018)
http://aviationweather.gov/metar/data/
 
TNCM 130008Z 06014G25KT 030V090 3000 RA FEW///CB SCT016 27/24 Q1014 TEMPO TSRA RMK A2995/ CB ENE
TNCM 130000Z 05013KT 9999 VCSH FEW///CB 27/23 Q1014 TEMPO TSRA RMK A2995/ CB ENE/ VCSH E
TNCM 122337Z 06012KT 9999 TS FEW///CB FEW018 27/23 Q1014 TEMPO TS RMK A2994/ CB ENE
TNCM 122350Z 1300/1324 06012KT P6SM VCSH SCT018 TEMPO 1300/1301 TS BKN018CB FM131200 09014G20KT P6SM VCTS SCT018CB BKN030 

 AIRPORT MAP

 RUNWAY INFORMATION
Runway 10 Runway length 7546 ft Runway width 150 ft
Runway elevation 13 ft Runway displaced threshold 0 ft Runway heading 96
Runway 28 Runway length 7546 ft Runway width 150 ft
Runway elevation 9 ft Runway displaced threshold 328 ft Runway heading 276

 AIRPORT FREQUENCIES
Type APP Name JULIANA AP Frequency 128.95 MHZ
Type TWR Name JULIANA TW Frequency 118.7 MHZ

 AIRPORT NEAR NAVIGATION AIDS
Type NDB Name St.mMarten Frequency 284 KHZ
Type VOR-DME Name St.mMarten Frequency 113000 KHZ